Time;durP1;ratioP1;P1;durP2;ratioP2;P2;SDS_P1;SDS_P2;PMS_P1;PMS_P2;Temp;Humidity;BMP_temperature;BMP_pressure;BME280_temperature;BME280_humidity;BME280_pressure;Samples;Min_cycle;Max_cycle;Signal;HPM_P1;HPM_P2
2021/06/21 00:00:56;;;;;;;11.68;2.63;;;;;;;;;;4988673;28;20030;-74
2021/06/21 00:03:22;;;;;;;13.75;2.50;;;;;;;;;;4989190;28;20402;-74
2021/06/21 00:05:48;;;;;;;10.30;2.38;;;;;;;;;;4987754;28;20482;-74
2021/06/21 00:08:14;;;;;;;14.45;2.20;;;;;;;;;;4989205;28;20026;-74
2021/06/21 00:10:40;;;;;;;12.80;2.58;;;;;;;;;;4988577;28;20064;-74
2021/06/21 00:13:06;;;;;;;12.88;2.58;;;;;;;;;;4989454;28;20026;-74
2021/06/21 00:15:33;;;;;;;14.88;2.72;;;;;;;;;;4988970;28;20045;-74
2021/06/21 00:17:59;;;;;;;12.77;2.65;;;;;;;;;;4989195;28;20027;-74
2021/06/21 00:20:25;;;;;;;12.30;2.28;;;;;;;;;;4988435;28;20428;-74
2021/06/21 00:22:51;;;;;;;14.70;3.83;;;;;;;;;;4988926;28;20026;-74
2021/06/21 00:25:18;;;;;;;12.98;2.70;;;;;;;;;;4988825;28;20050;-74
2021/06/21 00:27:44;;;;;;;16.63;2.78;;;;;;;;;;4987757;28;20026;-74
2021/06/21 00:30:11;;;;;;;14.75;2.92;;;;;;;;;;4988185;28;20042;-75
2021/06/21 00:32:41;;;;;;;11.50;2.40;;;;;;;;;;4988691;28;20023;-75
2021/06/21 00:35:08;;;;;;;8.20;2.90;;;;;;;;;;4988625;28;20097;-75
2021/06/21 00:37:34;;;;;;;12.15;2.83;;;;;;;;;;4990219;28;20030;-75
2021/06/21 00:40:01;;;;;;;9.93;2.70;;;;;;;;;;4991426;28;20030;-74
2021/06/21 00:42:27;;;;;;;15.13;2.17;;;;;;;;;;4992198;28;20525;-74
2021/06/21 00:44:53;;;;;;;20.90;4.85;;;;;;;;;;4992075;28;20034;-75
2021/06/21 00:47:19;;;;;;;14.82;2.97;;;;;;;;;;4992202;28;20102;-75
2021/06/21 00:49:45;;;;;;;15.07;3.50;;;;;;;;;;4990844;28;20108;-74
2021/06/21 00:52:16;;;;;;;13.80;2.65;;;;;;;;;;4992123;28;20025;-75
2021/06/21 00:54:42;;;;;;;14.73;3.08;;;;;;;;;;4991801;28;20030;-75
2021/06/21 00:57:08;;;;;;;12.38;3.08;;;;;;;;;;4992094;28;20023;-75
2021/06/21 00:59:34;;;;;;;15.88;2.85;;;;;;;;;;4990914;28;20041;-75
2021/06/21 01:02:00;;;;;;;13.18;2.80;;;;;;;;;;4991919;28;20034;-75
2021/06/21 01:04:26;;;;;;;16.48;3.15;;;;;;;;;;4991330;28;20034;-75
2021/06/21 01:06:52;;;;;;;17.50;3.35;;;;;;;;;;4991750;28;20031;-75
2021/06/21 01:09:19;;;;;;;15.43;3.10;;;;;;;;;;4991308;28;20038;-75
2021/06/21 01:11:45;;;;;;;13.55;2.58;;;;;;;;;;4991347;28;20026;-76
2021/06/21 01:14:16;;;;;;;10.77;2.55;;;;;;;;;;4991747;28;20106;-75
2021/06/21 01:16:44;;;;;;;14.90;3.85;;;;;;;;;;4991423;28;20426;-75
2021/06/21 01:19:15;;;;;;;9.93;2.58;;;;;;;;;;4990772;28;20156;-75
2021/06/21 01:21:44;;;;;;;10.48;2.90;;;;;;;;;;4991265;28;20036;-75
2021/06/21 01:24:10;;;;;;;12.27;2.60;;;;;;;;;;4991590;28;20502;-75
2021/06/21 01:26:43;;;;;;;11.93;3.28;;;;;;;;;;4991232;28;20589;-75
2021/06/21 01:29:23;;;;;;;10.80;2.67;;;;;;;;;;4989809;28;20034;-75
2021/06/21 01:31:55;;;;;;;23.35;2.85;;;;;;;;;;4973720;28;20058;-75
2021/06/21 01:34:24;;;;;;;9.85;2.53;;;;;;;;;;4991067;28;20057;-75
2021/06/21 01:36:51;;;;;;;12.10;2.90;;;;;;;;;;4971892;28;20062;-75
2021/06/21 01:39:18;;;;;;;11.65;2.90;;;;;;;;;;4981957;28;20057;-75
2021/06/21 01:41:45;;;;;;;13.93;2.80;;;;;;;;;;4989291;28;20042;-75
2021/06/21 01:44:12;;;;;;;15.02;3.67;;;;;;;;;;4991130;28;20101;-74
2021/06/21 01:46:39;;;;;;;12.05;2.15;;;;;;;;;;4991104;28;20070;-74
2021/06/21 01:49:09;;;;;;;15.45;2.38;;;;;;;;;;4990237;28;20035;-74
2021/06/21 19:51:58;;;;;;;1.80;1.33;;;;;;;;;;5118490;27;20312;-79
2021/06/21 19:54:24;;;;;;;3.95;1.38;;;;;;;;;;5095076;28;20108;-79
2021/06/21 19:56:50;;;;;;;2.13;1.30;;;;;;;;;;5085177;28;20052;-79
2021/06/21 19:59:17;;;;;;;2.80;1.38;;;;;;;;;;5071686;28;20024;-77
2021/06/21 20:01:44;;;;;;;2.65;1.95;;;;;;;;;;5072472;28;20017;-77
2021/06/21 20:04:10;;;;;;;5.40;1.38;;;;;;;;;;5072026;28;20025;-77
2021/06/21 20:06:36;;;;;;;5.40;1.67;;;;;;;;;;5068670;28;20082;-77
2021/06/21 20:09:02;;;;;;;4.22;1.27;;;23.40;99.90;;;;;;5070768;28;20473;-77
2021/06/21 20:11:28;;;;;;;4.70;1.60;;;22.60;99.90;;;;;;5070576;28;20032;-78
2021/06/21 20:13:55;;;;;;;3.30;1.45;;;22.60;99.90;;;;;;5071085;28;20021;-77
2021/06/21 20:16:27;;;;;;;3.40;1.60;;;22.50;99.90;;;;;;5070710;28;20066;-77
2021/06/21 20:18:52;;;;;;;3.58;1.50;;;22.40;99.90;;;;;;5070666;28;20028;-77
2021/06/21 20:21:18;;;;;;;2.25;1.30;;;22.30;99.90;;;;;;5069564;28;20402;-75
2021/06/21 20:23:44;;;;;;;5.28;1.50;;;22.20;99.90;;;;;;5068039;28;20083;-75
2021/06/21 20:26:10;;;;;;;3.72;1.40;;;22.10;99.90;;;;;;5067869;28;20024;-76
2021/06/21 20:28:36;;;;;;;3.72;1.70;;;22.10;99.90;;;;;;5067614;28;20034;-77
2021/06/21 20:31:01;;;;;;;2.55;1.20;;;21.90;99.90;;;;;;5067328;28;20032;-76
2021/06/21 20:33:38;;;;;;;2.25;1.40;;;22.00;99.90;;;;;;5067649;28;20055;-76
2021/06/21 20:36:06;;;;;;;4.47;1.13;;;21.90;99.90;;;;;;5067721;28;20029;-76
2021/06/21 20:38:32;;;;;;;1.65;1.25;;;21.90;99.90;;;;;;5064526;28;20021;-78
2021/06/21 20:41:00;;;;;;;3.08;1.30;;;21.90;99.90;;;;;;5067127;28;20105;-76
2021/06/21 20:43:26;;;;;;;5.85;2.08;;;21.90;99.90;;;;;;5067575;28;20025;-71
2021/06/21 20:45:51;;;;;;;4.05;1.58;;;22.10;99.90;;;;;;5067361;28;20070;-76
2021/06/21 20:48:18;;;;;;;4.03;1.55;;;21.90;99.90;;;;;;5067342;28;20377;-75
2021/06/21 20:50:44;;;;;;;8.15;1.80;;;21.60;99.90;;;;;;5066727;28;20082;-75
2021/06/21 20:53:10;;;;;;;3.38;1.02;;;;;;;;;;5067102;28;20025;-75
2021/06/21 20:55:36;;;;;;;1.48;0.88;;;21.20;99.90;;;;;;5067453;28;20485;-75
2021/06/21 20:58:02;;;;;;;4.88;1.30;;;20.30;99.90;;;;;;5067297;28;20021;-75
2021/06/21 21:00:33;;;;;;;1.85;1.02;;;20.00;99.90;;;;;;5066550;28;20033;-74
2021/06/21 21:02:59;;;;;;;2.15;0.82;;;;;;;;;;5054724;28;20029;-75
2021/06/21 21:05:25;;;;;;;1.90;0.90;;;19.70;99.90;;;;;;5052585;28;20139;-75
2021/06/21 21:07:51;;;;;;;3.95;1.17;;;19.20;99.90;;;;;;5053568;28;20036;-75
2021/06/21 21:10:18;;;;;;;1.52;1.00;;;;;;;;;;5053353;28;20029;-75
2021/06/21 21:12:44;;;;;;;1.67;0.70;;;;;;;;;;5053761;28;20024;-75
2021/06/21 21:15:10;;;;;;;3.35;1.20;;;;;;;;;;5053843;28;20025;-75
2021/06/21 21:17:37;;;;;;;3.17;1.10;;;;;;;;;;5053848;28;20311;-75
2021/06/21 21:20:07;;;;;;;3.63;1.05;;;;;;;;;;5053160;28;20494;-76
2021/06/21 21:22:33;;;;;;;3.83;0.95;;;;;;;;;;5053360;28;20464;-75
2021/06/21 21:24:59;;;;;;;4.90;1.00;;;;;;;;;;5053680;28;20108;-75
2021/06/21 21:27:25;;;;;;;3.42;0.82;;;;;;;;;;5053421;28;20087;-75
2021/06/21 21:29:51;;;;;;;2.85;1.23;;;;;;;;;;5052888;28;20024;-75
2021/06/21 21:32:17;;;;;;;2.45;0.90;;;;;;;;;;5053952;28;20048;-76
2021/06/21 21:34:43;;;;;;;3.55;1.10;;;;;;;;;;5054059;28;20079;-75
2021/06/21 21:37:09;;;;;;;6.00;1.27;;;;;;;;;;5053604;28;20021;-76
2021/06/21 21:39:35;;;;;;;4.68;1.20;;;;;;;;;;5053382;28;20021;-76
2021/06/21 21:42:01;;;;;;;2.75;1.10;;;;;;;;;;5053854;28;20033;-76
2021/06/21 21:44:28;;;;;;;5.97;1.17;;;;;;;;;;5053748;28;20029;-76
2021/06/21 21:46:54;;;;;;;3.20;1.20;;;;;;;;;;5053790;28;20032;-76
2021/06/21 21:49:20;;;;;;;6.07;1.20;;;;;;;;;;5053262;28;20064;-76
2021/06/21 21:51:46;;;;;;;4.55;1.20;;;;;;;;;;5053056;28;20906;-76
2021/06/21 21:54:12;;;;;;;3.67;1.20;;;;;;;;;;5052414;28;20068;-75
2021/06/21 21:56:38;;;;;;;3.85;1.00;;;;;;;;;;5053411;28;20028;-75
2021/06/21 21:59:04;;;;;;;5.32;1.20;;;;;;;;;;5052822;28;20037;-76
2021/06/21 22:01:30;;;;;;;4.40;1.10;;;;;;;;;;5053588;28;20040;-75
2021/06/21 22:03:56;;;;;;;3.28;1.30;;;;;;;;;;5053417;28;20477;-75
2021/06/21 22:06:22;;;;;;;5.85;1.23;;;;;;;;;;5053364;28;20025;-75
2021/06/21 22:08:48;;;;;;;2.95;0.98;;;;;;;;;;5052776;28;20029;-76
2021/06/21 22:11:14;;;;;;;3.80;1.05;;;;;;;;;;5052880;28;20108;-75
2021/06/21 22:13:40;;;;;;;3.15;1.40;;;;;;;;;;5052124;28;20552;-75
2021/06/21 22:16:07;;;;;;;4.38;1.30;;;;;;;;;;5053031;28;20025;-75
2021/06/21 22:18:33;;;;;;;5.70;1.58;;;;;;;;;;5053095;28;20024;-75
2021/06/21 22:20:59;;;;;;;2.90;1.30;;;;;;;;;;5052669;28;20059;-75
2021/06/21 22:23:25;;;;;;;3.47;1.33;;;;;;;;;;5052913;28;20096;-75
2021/06/21 22:25:51;;;;;;;2.22;0.90;;;;;;;;;;5053047;28;20035;-75
2021/06/21 22:28:17;;;;;;;3.85;1.40;;;;;;;;;;5052985;28;20036;-75
2021/06/21 22:30:44;;;;;;;5.72;1.33;;;;;;;;;;5052441;28;20025;-76
2021/06/21 22:33:10;;;;;;;3.63;1.20;;;;;;;;;;5051773;28;20036;-75
2021/06/21 22:35:37;;;;;;;2.88;0.88;;;;;;;;;;5052911;28;20474;-76
2021/06/21 22:38:04;;;;;;;3.95;0.98;;;;;;;;;;5052598;28;20096;-76
2021/06/21 22:40:30;;;;;;;2.65;0.98;;;;;;;;;;5052035;28;20530;-76
2021/06/21 22:42:56;;;;;;;1.80;0.98;;;;;;;;;;5052793;28;20037;-76
2021/06/21 22:45:22;;;;;;;1.77;0.82;;;;;;;;;;5052650;28;20091;-75
2021/06/21 22:47:51;;;;;;;1.23;0.70;;;;;;;;;;5052520;28;20464;-76
2021/06/21 22:50:18;;;;;;;3.33;1.00;;;;;;;;;;5051738;28;20033;-76
2021/06/21 22:52:44;;;;;;;4.50;1.05;;;;;;;;;;5052255;28;20049;-76
2021/06/21 22:55:12;;;;;;;2.05;0.90;;;;;;;;;;5052317;28;20017;-75
2021/06/21 22:57:45;;;;;;;3.70;1.20;;;;;;;;;;5052293;28;20366;-76
2021/06/21 23:00:16;;;;;;;5.18;1.13;;;;;;;;;;5051771;28;20567;-75
2021/06/21 23:02:42;;;;;;;1.67;0.82;;;;;;;;;;5051010;28;20115;-76
2021/06/21 23:05:09;;;;;;;2.33;1.00;;;;;;;;;;5051002;28;20032;-76
2021/06/21 23:07:35;;;;;;;1.83;0.98;;;;;;;;;;5051725;28;20444;-76
2021/06/21 23:10:01;;;;;;;3.03;1.02;;;;;;;;;;5051553;28;20470;-76
2021/06/21 23:12:27;;;;;;;1.67;0.80;;;;;;;;;;5050667;28;20037;-76
2021/06/21 23:14:53;;;;;;;1.30;0.85;;;;;;;;;;5050992;28;20021;-76
2021/06/21 23:17:19;;;;;;;3.55;1.10;;;;;;;;;;5052039;28;20116;-76
2021/06/21 23:19:45;;;;;;;3.90;0.95;;;;;;;;;;5051072;28;20494;-76
2021/06/21 23:22:11;;;;;;;2.50;0.80;;;;;;;;;;5051508;28;20025;-75
2021/06/21 23:24:37;;;;;;;1.17;0.70;;;;;;;;;;5051792;28;20363;-76
2021/06/21 23:27:03;;;;;;;1.23;0.85;;;;;;;;;;5051957;28;20063;-76
2021/06/21 23:29:29;;;;;;;1.95;1.08;;;;;;;;;;5051369;28;20033;-75
2021/06/21 23:31:55;;;;;;;1.02;0.80;;;;;;;;;;5051701;28;20037;-76
2021/06/21 23:34:22;;;;;;;1.73;1.20;;;;;;;;;;5051911;28;20112;-76
2021/06/21 23:36:48;;;;;;;6.18;1.33;;;;;;;;;;5051459;28;20475;-76
2021/06/21 23:39:14;;;;;;;3.67;0.95;;;;;;;;;;5051236;28;20037;-76
2021/06/21 23:41:40;;;;;;;2.08;1.05;;;;;;;;;;5051624;28;20036;-76
2021/06/21 23:44:06;;;;;;;4.82;1.10;;;;;;;;;;5051707;28;20056;-76
2021/06/21 23:46:33;;;;;;;3.53;0.98;;;;;;;;;;5050469;28;20037;-76
2021/06/21 23:48:59;;;;;;;1.60;1.05;;;;;;;;;;5049846;28;20379;-76
2021/06/21 23:51:26;;;;;;;2.58;1.20;;;;;;;;;;5051363;28;20485;-76
2021/06/21 23:53:52;;;;;;;2.80;1.42;;;;;;;;;;5050145;28;20557;-76
2021/06/21 23:56:18;;;;;;;1.73;1.05;;;;;;;;;;5051613;28;20108;-76
2021/06/21 23:58:44;;;;;;;2.03;1.05;;;;;;;;;;5051451;28;20497;-76
